Annandale, New York
Current Conditions -  °F | °C
As of 11:21 AM on Sunday 21 Dec 2014 (Local Time) from KPOU Reporting Station
Light Snow Light Snow  
Wind Chill: -3°   Ceiling: 1900
Heat Index:   Visibility: 1.2mi
Dew Point: -3°   Wind: 6mph
Humidity: 82%   Direction: 350°N
Pressure: 30.32"   Gusts: NA
Location:  42.0124°N, 73.8998°W
Report Text: KPOU 211621Z 35005KT 1 1/4SM -SN SCT009 OVC019 00/M03 A3032 RMK AO2 P0000 T00001028
Loading
Personal Weather Stations






























Interactive Weather Map New forecast layout! Learn more

10-Day Weather Forecast

Advertisements
Track Severe Weather on mobile